KRH645R EGSS-EBBR
Flight info
| Callsign | KRH645R |
|---|---|
| Flight time | 0h 40m |
| Altitude | 23000 |
| Route | CLN M84 KONAN UL607 KOK |
| Aircraft | A332/H-SDE3GHIJ2J3J5M1RVWXY/LB2D1 |
Departure
| Time | 2026-05-07 16:55 |
|---|---|
| Airport | London Stansted Airport (EGSS) |
Arrival
| Time | 2026-05-07 17:36 |
|---|---|
| Airport | Brussels Airport (EBBR) |
| Time | Latitude | Longitude | Altitude | Speed | Heading |
|---|---|---|---|---|---|
| 2026-05-07 16:47 | 51.87919 | 0.22015 | 337 ft | 0 kts | 339° |
| 2026-05-07 16:50 | 51.87907 | 0.22026 | 334 ft | 2 kts | 303° |
| 2026-05-07 16:50 | 51.87898 | 0.22048 | 334 ft | 2 kts | 303° |
| 2026-05-07 16:51 | 51.87890 | 0.22070 | 336 ft | 2 kts | 313° |
| 2026-05-07 16:51 | 51.87867 | 0.22083 | 354 ft | 4 kts | 328° |
| 2026-05-07 16:51 | 51.87859 | 0.22123 | 354 ft | 4 kts | 252° |
| 2026-05-07 16:51 | 51.87877 | 0.22157 | 355 ft | 2 kts | 227° |
| 2026-05-07 16:52 | 51.87870 | 0.22146 | 355 ft | 2 kts | 225° |
| 2026-05-07 16:52 | 51.87862 | 0.22132 | 354 ft | 0 kts | 227° |
| 2026-05-07 16:52 | 51.87858 | 0.22125 | 354 ft | 2 kts | 227° |
| 2026-05-07 16:52 | 51.87844 | 0.22102 | 354 ft | 4 kts | 224° |
| 2026-05-07 16:53 | 51.87819 | 0.22064 | 353 ft | 6 kts | 223° |
| 2026-05-07 16:53 | 51.87783 | 0.22010 | 352 ft | 8 kts | 223° |
| 2026-05-07 16:53 | 51.87739 | 0.21944 | 353 ft | 10 kts | 223° |
| 2026-05-07 16:53 | 51.87670 | 0.21913 | 339 ft | 11 kts | 172° |
| 2026-05-07 16:54 | 51.87598 | 0.21943 | 335 ft | 11 kts | 164° |
| 2026-05-07 16:54 | 51.87545 | 0.21997 | 338 ft | 8 kts | 110° |
| 2026-05-07 16:54 | 51.87565 | 0.22071 | 337 ft | 8 kts | 53° |
| 2026-05-07 16:54 | 51.87608 | 0.22142 | 353 ft | 15 kts | 43° |
| 2026-05-07 16:55 | 51.87858 | 0.22516 | 354 ft | 87 kts | 43° |
| 2026-05-07 16:55 | 51.88482 | 0.23454 | 354 ft | 155 kts | 44° |
| 2026-05-07 16:55 | 51.89421 | 0.24803 | 590 ft | 200 kts | 44° |
| 2026-05-07 16:55 | 51.90499 | 0.26320 | 1436 ft | 211 kts | 41° |
| 2026-05-07 16:56 | 51.91587 | 0.27994 | 2340 ft | 218 kts | 61° |
| 2026-05-07 16:56 | 51.91858 | 0.30292 | 3521 ft | 215 kts | 101° |
| 2026-05-07 16:56 | 51.90907 | 0.35473 | 4896 ft | 261 kts | 100° |
| 2026-05-07 16:57 | 51.90592 | 0.38413 | 5830 ft | 269 kts | 107° |
| 2026-05-07 16:57 | 51.89849 | 0.41219 | 6882 ft | 273 kts | 120° |
| 2026-05-07 16:57 | 51.88858 | 0.43853 | 7963 ft | 276 kts | 126° |
| 2026-05-07 16:57 | 51.87757 | 0.46358 | 9067 ft | 279 kts | 128° |
| 2026-05-07 16:58 | 51.86547 | 0.48892 | 10154 ft | 283 kts | 129° |
| 2026-05-07 16:58 | 51.85278 | 0.51464 | 10764 ft | 304 kts | 131° |
| 2026-05-07 16:58 | 51.83899 | 0.54237 | 11164 ft | 329 kts | 130° |
| 2026-05-07 16:58 | 51.82433 | 0.57216 | 11714 ft | 346 kts | 130° |
| 2026-05-07 16:59 | 51.80948 | 0.60273 | 12592 ft | 353 kts | 130° |
| 2026-05-07 16:59 | 51.79430 | 0.63424 | 13484 ft | 359 kts | 129° |
| 2026-05-07 16:59 | 51.77872 | 0.66673 | 14359 ft | 364 kts | 130° |
| 2026-05-07 16:59 | 51.76329 | 0.69894 | 15119 ft | 371 kts | 129° |
| 2026-05-07 17:00 | 51.74736 | 0.73213 | 15891 ft | 377 kts | 129° |
| 2026-05-07 17:00 | 51.73118 | 0.76579 | 16670 ft | 383 kts | 130° |
| 2026-05-07 17:00 | 51.71469 | 0.80003 | 17449 ft | 389 kts | 130° |
| 2026-05-07 17:00 | 51.69797 | 0.83467 | 18195 ft | 395 kts | 130° |
| 2026-05-07 17:01 | 51.68095 | 0.86989 | 18856 ft | 401 kts | 129° |
| 2026-05-07 17:01 | 51.66370 | 0.90551 | 19552 ft | 404 kts | 129° |
| 2026-05-07 17:01 | 51.64632 | 0.94137 | 20199 ft | 408 kts | 130° |
| 2026-05-07 17:01 | 51.62877 | 0.97751 | 20887 ft | 412 kts | 129° |
| 2026-05-07 17:02 | 51.61103 | 1.01400 | 21546 ft | 415 kts | 130° |
| 2026-05-07 17:02 | 51.59311 | 1.05081 | 22189 ft | 420 kts | 130° |
| 2026-05-07 17:02 | 51.57501 | 1.08792 | 22764 ft | 424 kts | 130° |
| 2026-05-07 17:02 | 51.55674 | 1.12533 | 23038 ft | 429 kts | 130° |
| 2026-05-07 17:03 | 51.53798 | 1.16367 | 23074 ft | 443 kts | 130° |
| 2026-05-07 17:03 | 51.51878 | 1.20283 | 23068 ft | 448 kts | 130° |
| 2026-05-07 17:03 | 51.49971 | 1.24173 | 23067 ft | 448 kts | 130° |
| 2026-05-07 17:03 | 51.48045 | 1.28096 | 23071 ft | 448 kts | 130° |
| 2026-05-07 17:04 | 51.46112 | 1.32029 | 23068 ft | 448 kts | 130° |
| 2026-05-07 17:04 | 51.44181 | 1.35950 | 23068 ft | 448 kts | 130° |
| 2026-05-07 17:04 | 51.42258 | 1.39884 | 23067 ft | 448 kts | 129° |
| 2026-05-07 17:04 | 51.40347 | 1.43840 | 23058 ft | 449 kts | 129° |
| 2026-05-07 17:05 | 51.38445 | 1.47797 | 23063 ft | 448 kts | 129° |
| 2026-05-07 17:05 | 51.36548 | 1.51747 | 23065 ft | 448 kts | 129° |
| 2026-05-07 17:05 | 51.34649 | 1.55697 | 23079 ft | 447 kts | 129° |
| 2026-05-07 17:05 | 51.32751 | 1.59634 | 23064 ft | 447 kts | 129° |
| 2026-05-07 17:06 | 51.30845 | 1.63576 | 23067 ft | 448 kts | 129° |
| 2026-05-07 17:06 | 51.28937 | 1.67513 | 23066 ft | 449 kts | 129° |
| 2026-05-07 17:06 | 51.27023 | 1.71456 | 23047 ft | 449 kts | 129° |
| 2026-05-07 17:06 | 51.25107 | 1.75396 | 23063 ft | 449 kts | 129° |
| 2026-05-07 17:07 | 51.23192 | 1.79327 | 23064 ft | 449 kts | 129° |
| 2026-05-07 17:07 | 51.21273 | 1.83259 | 23063 ft | 449 kts | 130° |
| 2026-05-07 17:07 | 51.19351 | 1.87192 | 23044 ft | 449 kts | 130° |
| 2026-05-07 17:07 | 51.17431 | 1.91117 | 23071 ft | 449 kts | 130° |
| 2026-05-07 17:08 | 51.15531 | 1.95066 | 23070 ft | 449 kts | 126° |
| 2026-05-07 17:08 | 51.13981 | 1.99387 | 23070 ft | 451 kts | 115° |
| 2026-05-07 17:08 | 51.13035 | 2.04151 | 23070 ft | 453 kts | 102° |
| 2026-05-07 17:08 | 51.12611 | 2.09074 | 23069 ft | 454 kts | 97° |
| 2026-05-07 17:09 | 51.12319 | 2.14075 | 23070 ft | 455 kts | 96° |
| 2026-05-07 17:09 | 51.12049 | 2.19106 | 23069 ft | 455 kts | 96° |
| 2026-05-07 17:09 | 51.11780 | 2.24120 | 23067 ft | 455 kts | 96° |
| 2026-05-07 17:09 | 51.11509 | 2.29127 | 23058 ft | 455 kts | 96° |
| 2026-05-07 17:10 | 51.11233 | 2.34152 | 23060 ft | 455 kts | 96° |
| 2026-05-07 17:10 | 51.10956 | 2.39153 | 23061 ft | 455 kts | 96° |
| 2026-05-07 17:10 | 51.10675 | 2.44166 | 23061 ft | 454 kts | 96° |
| 2026-05-07 17:10 | 51.10392 | 2.49171 | 23062 ft | 454 kts | 96° |
| 2026-05-07 17:11 | 51.10108 | 2.54170 | 23062 ft | 454 kts | 96° |
| 2026-05-07 17:11 | 51.09821 | 2.59169 | 23062 ft | 454 kts | 96° |
| 2026-05-07 17:11 | 51.09512 | 2.64172 | 23061 ft | 454 kts | 98° |
| 2026-05-07 17:11 | 51.09012 | 2.69126 | 23060 ft | 453 kts | 101° |
| 2026-05-07 17:12 | 51.08429 | 2.74057 | 23061 ft | 453 kts | 102° |
| 2026-05-07 17:12 | 51.07838 | 2.78941 | 22957 ft | 444 kts | 102° |
| 2026-05-07 17:12 | 51.07260 | 2.83705 | 22534 ft | 434 kts | 102° |
| 2026-05-07 17:12 | 51.06690 | 2.88396 | 21961 ft | 429 kts | 102° |
| 2026-05-07 17:13 | 51.06127 | 2.93017 | 21390 ft | 425 kts | 102° |
| 2026-05-07 17:13 | 51.05566 | 2.97617 | 20745 ft | 421 kts | 102° |
| 2026-05-07 17:13 | 51.05011 | 3.02152 | 20108 ft | 417 kts | 102° |
| 2026-05-07 17:13 | 51.04465 | 3.06604 | 19482 ft | 413 kts | 102° |
| 2026-05-07 17:14 | 51.03918 | 3.11052 | 18888 ft | 409 kts | 102° |
| 2026-05-07 17:14 | 51.03374 | 3.15459 | 18283 ft | 405 kts | 102° |
| 2026-05-07 17:14 | 51.02833 | 3.19829 | 17602 ft | 401 kts | 102° |
| 2026-05-07 17:14 | 51.02290 | 3.24205 | 16927 ft | 397 kts | 102° |
| 2026-05-07 17:15 | 51.01764 | 3.28425 | 16280 ft | 392 kts | 102° |
| 2026-05-07 17:15 | 51.01237 | 3.32640 | 15654 ft | 387 kts | 102° |
| 2026-05-07 17:15 | 51.00715 | 3.36811 | 15069 ft | 382 kts | 102° |
| 2026-05-07 17:15 | 51.00196 | 3.40933 | 14509 ft | 379 kts | 102° |
| 2026-05-07 17:16 | 50.99681 | 3.45017 | 13959 ft | 376 kts | 102° |
| 2026-05-07 17:16 | 50.99168 | 3.49072 | 13339 ft | 373 kts | 102° |
| 2026-05-07 17:16 | 50.98658 | 3.53096 | 12735 ft | 370 kts | 102° |
| 2026-05-07 17:16 | 50.98151 | 3.57080 | 12188 ft | 367 kts | 102° |
| 2026-05-07 17:17 | 50.97646 | 3.61037 | 11669 ft | 364 kts | 102° |
| 2026-05-07 17:17 | 50.97144 | 3.64957 | 11167 ft | 362 kts | 102° |
| 2026-05-07 17:17 | 50.96645 | 3.68851 | 10670 ft | 359 kts | 102° |
| 2026-05-07 17:17 | 50.96150 | 3.72699 | 10184 ft | 351 kts | 102° |
| 2026-05-07 17:18 | 50.95666 | 3.76450 | 9675 ft | 343 kts | 102° |
| 2026-05-07 17:18 | 50.95192 | 3.80114 | 9133 ft | 336 kts | 102° |
| 2026-05-07 17:18 | 50.94726 | 3.83705 | 8607 ft | 329 kts | 102° |
| 2026-05-07 17:18 | 50.94269 | 3.87222 | 8098 ft | 323 kts | 102° |
| 2026-05-07 17:19 | 50.93819 | 3.90672 | 7644 ft | 315 kts | 102° |
| 2026-05-07 17:19 | 50.93381 | 3.94027 | 7261 ft | 307 kts | 102° |
| 2026-05-07 17:19 | 50.92968 | 3.97266 | 7087 ft | 293 kts | 100° |
| 2026-05-07 17:19 | 50.92795 | 4.00351 | 7061 ft | 278 kts | 90° |
| 2026-05-07 17:20 | 50.92732 | 4.03391 | 7070 ft | 275 kts | 97° |
| 2026-05-07 17:20 | 50.92450 | 4.06410 | 7064 ft | 276 kts | 98° |
| 2026-05-07 17:20 | 50.92219 | 4.09420 | 6699 ft | 276 kts | 97° |
| 2026-05-07 17:20 | 50.91998 | 4.12425 | 6329 ft | 273 kts | 97° |
| 2026-05-07 17:21 | 50.91778 | 4.15403 | 5941 ft | 270 kts | 97° |
| 2026-05-07 17:21 | 50.91556 | 4.18346 | 5543 ft | 268 kts | 97° |
| 2026-05-07 17:21 | 50.91331 | 4.21269 | 5179 ft | 265 kts | 97° |
| 2026-05-07 17:21 | 50.91102 | 4.24166 | 5079 ft | 265 kts | 97° |
| 2026-05-07 17:22 | 50.90872 | 4.27057 | 5061 ft | 265 kts | 97° |
| 2026-05-07 17:22 | 50.90643 | 4.29911 | 5007 ft | 264 kts | 97° |
| 2026-05-07 17:22 | 50.90407 | 4.32831 | 5001 ft | 264 kts | 97° |
| 2026-05-07 17:22 | 50.90176 | 4.35685 | 5002 ft | 264 kts | 97° |
| 2026-05-07 17:23 | 50.89942 | 4.38575 | 5001 ft | 264 kts | 97° |
| 2026-05-07 17:23 | 50.89708 | 4.41460 | 5002 ft | 264 kts | 97° |
| 2026-05-07 17:23 | 50.89473 | 4.44351 | 5001 ft | 265 kts | 97° |
| 2026-05-07 17:23 | 50.89239 | 4.47237 | 5002 ft | 264 kts | 97° |
| 2026-05-07 17:24 | 50.89004 | 4.50118 | 5001 ft | 264 kts | 97° |
| 2026-05-07 17:24 | 50.88769 | 4.53004 | 5002 ft | 264 kts | 97° |
| 2026-05-07 17:24 | 50.88533 | 4.55889 | 5002 ft | 264 kts | 97° |
| 2026-05-07 17:24 | 50.88296 | 4.58781 | 5001 ft | 264 kts | 97° |
| 2026-05-07 17:25 | 50.88060 | 4.61668 | 5002 ft | 264 kts | 97° |
| 2026-05-07 17:25 | 50.87825 | 4.64542 | 4896 ft | 264 kts | 97° |
| 2026-05-07 17:25 | 50.87585 | 4.67443 | 4447 ft | 264 kts | 97° |
| 2026-05-07 17:25 | 50.87346 | 4.70301 | 4059 ft | 261 kts | 97° |
| 2026-05-07 17:26 | 50.87108 | 4.73136 | 3661 ft | 259 kts | 97° |
| 2026-05-07 17:26 | 50.86871 | 4.75952 | 3259 ft | 258 kts | 97° |
| 2026-05-07 17:26 | 50.86637 | 4.78758 | 3010 ft | 257 kts | 97° |
| 2026-05-07 17:26 | 50.86401 | 4.81569 | 2994 ft | 257 kts | 97° |
| 2026-05-07 17:27 | 50.86164 | 4.84373 | 2995 ft | 257 kts | 97° |
| 2026-05-07 17:27 | 50.85930 | 4.87184 | 2993 ft | 257 kts | 96° |
| 2026-05-07 17:27 | 50.85959 | 4.90000 | 2992 ft | 257 kts | 81° |
| 2026-05-07 17:27 | 50.86555 | 4.92611 | 2992 ft | 257 kts | 58° |
| 2026-05-07 17:28 | 50.87836 | 4.94594 | 2995 ft | 257 kts | 31° |
| 2026-05-07 17:28 | 50.89437 | 4.95863 | 2995 ft | 258 kts | 24° |
| 2026-05-07 17:28 | 50.91071 | 4.96945 | 2994 ft | 258 kts | 22° |
| 2026-05-07 17:28 | 50.92711 | 4.97997 | 2987 ft | 246 kts | 22° |
| 2026-05-07 17:29 | 50.94248 | 4.98981 | 2982 ft | 231 kts | 22° |
| 2026-05-07 17:29 | 50.95694 | 4.99884 | 2984 ft | 216 kts | 18° |
| 2026-05-07 17:29 | 50.97136 | 4.99932 | 2978 ft | 204 kts | 343° |
| 2026-05-07 17:29 | 50.98246 | 4.98700 | 2976 ft | 192 kts | 305° |
| 2026-05-07 17:30 | 50.98769 | 4.96793 | 2992 ft | 189 kts | 286° |
| 2026-05-07 17:30 | 50.98984 | 4.95448 | 2996 ft | 189 kts | 283° |
| 2026-05-07 17:30 | 50.99118 | 4.93370 | 2993 ft | 190 kts | 266° |
| 2026-05-07 17:30 | 50.98875 | 4.91319 | 2996 ft | 190 kts | 252° |
| 2026-05-07 17:31 | 50.98435 | 4.89345 | 2996 ft | 190 kts | 249° |
| 2026-05-07 17:31 | 50.97979 | 4.87381 | 2994 ft | 190 kts | 249° |
| 2026-05-07 17:31 | 50.97521 | 4.85417 | 2995 ft | 190 kts | 249° |
| 2026-05-07 17:31 | 50.97062 | 4.83455 | 2994 ft | 190 kts | 249° |
| 2026-05-07 17:32 | 50.96604 | 4.81491 | 2996 ft | 189 kts | 250° |
| 2026-05-07 17:32 | 50.96151 | 4.79534 | 2990 ft | 189 kts | 250° |
| 2026-05-07 17:32 | 50.95701 | 4.77571 | 2994 ft | 190 kts | 250° |
| 2026-05-07 17:32 | 50.95251 | 4.75605 | 2996 ft | 190 kts | 250° |
| 2026-05-07 17:33 | 50.94801 | 4.73639 | 2986 ft | 190 kts | 250° |
| 2026-05-07 17:33 | 50.94349 | 4.71669 | 2810 ft | 191 kts | 250° |
| 2026-05-07 17:33 | 50.93891 | 4.69682 | 2540 ft | 194 kts | 250° |
| 2026-05-07 17:33 | 50.93423 | 4.67648 | 2254 ft | 198 kts | 250° |
| 2026-05-07 17:34 | 50.92948 | 4.65584 | 1989 ft | 200 kts | 250° |
| 2026-05-07 17:34 | 50.92478 | 4.63544 | 1733 ft | 193 kts | 250° |
| 2026-05-07 17:34 | 50.92033 | 4.61615 | 1447 ft | 179 kts | 250° |
| 2026-05-07 17:34 | 50.91624 | 4.59840 | 1207 ft | 163 kts | 250° |
| 2026-05-07 17:35 | 50.91252 | 4.58228 | 978 ft | 148 kts | 250° |
| 2026-05-07 17:35 | 50.90917 | 4.56775 | 785 ft | 136 kts | 251° |
| 2026-05-07 17:35 | 50.90605 | 4.55419 | 608 ft | 127 kts | 251° |
| 2026-05-07 17:35 | 50.90302 | 4.54103 | 426 ft | 127 kts | 252° |
| 2026-05-07 17:36 | 50.89999 | 4.52791 | 260 ft | 127 kts | 252° |
| 2026-05-07 17:36 | 50.89699 | 4.51497 | 178 ft | 119 kts | 251° |
| 2026-05-07 17:36 | 50.89495 | 4.50594 | 179 ft | 46 kts | 249° |
| 2026-05-07 17:36 | 50.89476 | 4.50442 | 179 ft | 6 kts | 277° |
| 2026-05-07 17:37 | 50.89494 | 4.50299 | 178 ft | 15 kts | 282° |
| 2026-05-07 17:37 | 50.89513 | 4.50138 | 175 ft | 0 kts | 280° |
| 2026-05-07 17:37 | 50.89514 | 4.50122 | 175 ft | 9 kts | 280° |
| 2026-05-07 17:37 | 50.89529 | 4.49950 | 172 ft | 18 kts | 268° |
| 2026-05-07 17:38 | 50.89492 | 4.49749 | 172 ft | 20 kts | 250° |
| 2026-05-07 17:38 | 50.89456 | 4.49523 | 170 ft | 23 kts | 279° |
| 2026-05-07 17:38 | 50.89531 | 4.49330 | 165 ft | 17 kts | 306° |
| 2026-05-07 17:38 | 50.89582 | 4.49224 | 160 ft | 0 kts | 308° |
| 2026-05-07 17:40 | 50.89613 | 4.49172 | 158 ft | 18 kts | 323° |
| 2026-05-07 17:40 | 50.89793 | 4.49204 | 148 ft | 35 kts | 15° |
| 2026-05-07 17:40 | 50.90042 | 4.49307 | 135 ft | 39 kts | 15° |
| 2026-05-07 17:41 | 50.90246 | 4.49389 | 125 ft | 17 kts | 14° |
| 2026-05-07 17:41 | 50.90362 | 4.49342 | 127 ft | 18 kts | 333° |
| 2026-05-07 17:41 | 50.90489 | 4.49249 | 121 ft | 22 kts | 335° |
| 2026-05-07 17:41 | 50.90611 | 4.49160 | 122 ft | 9 kts | 335° |
| 2026-05-07 17:42 | 50.90644 | 4.49136 | 122 ft | 0 kts | 335° |
| 2026-05-07 17:42 | 50.90657 | 4.49127 | 121 ft | 9 kts | 335° |
| 2026-05-07 17:42 | 50.90696 | 4.48989 | 120 ft | 17 kts | 258° |
| 2026-05-07 17:42 | 50.90639 | 4.48783 | 120 ft | 28 kts | 245° |
| 2026-05-07 17:43 | 50.90582 | 4.48582 | 122 ft | 8 kts | 249° |
| 2026-05-07 17:43 | 50.90589 | 4.48487 | 121 ft | 4 kts | 294° |
| 2026-05-07 17:43 | 50.90590 | 4.48486 | 121 ft | 0 kts | 295° |
| 2026-05-07 17:43 | 50.90591 | 4.48482 | 122 ft | 3 kts | 295° |
| 2026-05-07 17:44 | 50.90595 | 4.48470 | 122 ft | 0 kts | 296° |
| 2026-05-07 17:44 | 50.90623 | 4.48389 | 122 ft | 19 kts | 301° |
| 2026-05-07 17:45 | 50.90701 | 4.48222 | 120 ft | 17 kts | 327° |
| 2026-05-07 17:45 | 50.90764 | 4.48182 | 123 ft | 1 kts | 342° |
| 2026-05-07 17:45 | 50.90782 | 4.48173 | 120 ft | 5 kts | 342° |
| 2026-05-07 17:45 | 50.90854 | 4.48168 | 121 ft | 12 kts | 23° |
| 2026-05-07 17:46 | 50.90911 | 4.48272 | 120 ft | 19 kts | 59° |
| 2026-05-07 17:46 | 50.91000 | 4.48509 | 120 ft | 20 kts | 59° |
| 2026-05-07 17:46 | 50.91013 | 4.48545 | 120 ft | 3 kts | 59° |
| 2026-05-07 17:46 | 50.91033 | 4.48579 | 121 ft | 2 kts | 27° |
| 2026-05-07 17:47 | 50.91056 | 4.48567 | 122 ft | 4 kts | 329° |
| 2026-05-07 17:47 | 50.91075 | 4.48548 | 121 ft | 1 kts | 329° |
| 2026-05-07 17:47 | 50.91094 | 4.48531 | 119 ft | 5 kts | 330° |
| 2026-05-07 17:47 | 50.91096 | 4.48529 | 119 ft | 0 kts | 330° |